Maxwell Paul Moran — WDJ2221 — position and weather

sailwx.info

Track history (hours):
 
Tides and Currents Weather Stations Pressure Air Temp Water Temp Dewpoint Dewpoint Depression Visibility Wind Speed Wind Dir Waves Ship Positions

Maxwell Paul Moran

Owner: MORAN TOWING CORPORATION, NORFOLK, VA. More information available from US FCC via Universal Licensing System and Coast Guard Vessel Documentation Center.

Last reported at 2017-Dec-11 01:18 UTC. Time now 2017-Dec-11 01:57 UTC.
Position N 36°52' W 076°19'.

Length 28 m; draft 5.2 m.

Type: Tug. MMSI: 367756350.

Date/timePositionNaut miles runAvg speedWind from/ knotsBaromVisibWave heightAir tempDewpointWater temp
2017-Dec-11 01:18N 36°52' W 076°19'2 6.1
2017-Dec-11 01:00N 36°50' W 076°18'2 4.4
2017-Dec-11 00:30N 36°48' W 076°17'0 0.2
2017-Dec-11 00:00N 36°48' W 076°18'1 2.7
2017-Dec-10 23:30N 36°50' W 076°17'2 3.7
2017-Dec-10 23:00N 36°51' W 076°18'0 0.5
2017-Dec-10 22:28N 36°51' W 076°19'2 5.2
2017-Dec-10 22:00N 36°49' W 076°17'1 2.2
2017-Dec-10 21:30N 36°48' W 076°17'0 0.0
2017-Dec-10 21:00N 36°48' W 076°17'0 0.0
2017-Dec-10 20:30N 36°48' W 076°17'0 0.1
2017-Dec-10 20:00N 36°48' W 076°17'4 8.4
2017-Dec-10 19:30N 36°52' W 076°19'1 0.5
2017-Dec-10 17:44N 36°53' W 076°20'0 1.0
2017-Dec-10 17:30N 36°53' W 076°20'0 0.0
2017-Dec-10 17:00N 36°53' W 076°20'0 0.0
2017-Dec-10 16:30N 36°53' W 076°20'0 0.0
2017-Dec-10 16:00N 36°53' W 076°20'0 0.0
2017-Dec-10 15:30N 36°53' W 076°20'0 0.0
2017-Dec-10 14:58N 36°53' W 076°20'0 0.0
2017-Dec-10 14:29N 36°53' W 076°20'0 0.0
2017-Dec-10 13:13N 36°53' W 076°20'0 0.0
2017-Dec-10 12:46N 36°53' W 076°20'1 2.2
2017-Dec-10 12:16N 36°53' W 076°21'0 0.1
2017-Dec-10 11:59N 36°53' W 076°21'0 0.0
2017-Dec-10 11:30N 36°53' W 076°21'0 0.7
2017-Dec-10 11:00N 36°53' W 076°21'1 1.1
2017-Dec-10 10:30N 36°53' W 076°20'0 0.0
2017-Dec-10 10:00N 36°53' W 076°20'0 0.0
2017-Dec-10 09:30N 36°53' W 076°20'0 0.0
2017-Dec-10 09:00N 36°53' W 076°20'0 0.0
2017-Dec-10 08:30N 36°53' W 076°20'0 0.0
2017-Dec-10 08:00N 36°53' W 076°20'0 0.0
2017-Dec-10 07:30N 36°53' W 076°20'0 0.0
2017-Dec-10 06:42N 36°53' W 076°20'0 0.0
2017-Dec-10 06:30N 36°53' W 076°20'0 0.0
2017-Dec-10 05:59N 36°53' W 076°20'0 0.0
2017-Dec-10 05:28N 36°53' W 076°20'0 0.0
2017-Dec-10 04:14N 36°53' W 076°20'0 0.0
2017-Dec-10 04:00N 36°53' W 076°20'0 0.0
2017-Dec-10 02:47N 36°53' W 076°20'0 0.3
2017-Dec-10 02:30N 36°53' W 076°20'2 1.7
2017-Dec-10 01:22N 36°55' W 076°20'1 1.9
2017-Dec-10 00:38N 36°53' W 076°20'1 9.4
2017-Dec-10 00:30N 36°52' W 076°20'1 1.4
2017-Dec-09 23:59N 36°51' W 076°20'1 0.6
2017-Dec-09 21:42N 36°53' W 076°20'0 0.0
2017-Dec-09 17:20N 36°53' W 076°20'0 0.2
2017-Dec-09 17:00N 36°53' W 076°20'0 0.0
2017-Dec-09 16:30N 36°53' W 076°20'0 0.0
2017-Dec-09 16:00N 36°53' W 076°20'0 0.0
2017-Dec-09 15:30N 36°53' W 076°20'0 0.0
2017-Dec-09 15:00N 36°53' W 076°20'0 0.0
2017-Dec-09 14:28N 36°53' W 076°20'0 0.0
2017-Dec-09 14:00N 36°53' W 076°20'0 0.0
2017-Dec-09 13:30N 36°53' W 076°20'0 0.0
2017-Dec-09 13:00N 36°53' W 076°20'0 0.0
2017-Dec-09 12:30N 36°53' W 076°20'0 0.0
2017-Dec-09 11:58N 36°53' W 076°20'0 0.0
2017-Dec-09 11:30N 36°53' W 076°20'0 0.0
2017-Dec-09 11:00N 36°53' W 076°20'0 0.0
2017-Dec-09 10:26N 36°53' W 076°20'0 0.0
2017-Dec-09 09:51N 36°53' W 076°20'0 0.0
2017-Dec-09 09:30N 36°53' W 076°20'0 0.0
2017-Dec-09 08:58N 36°53' W 076°20'1 2.3
2017-Dec-09 08:29N 36°52' W 076°19'1 1.0
2017-Dec-09 08:00N 36°51' W 076°20'1 1.8
2017-Dec-09 07:30N 36°52' W 076°20'0 0.9
2017-Dec-09 06:59N 36°53' W 076°20'0 0.0
2017-Dec-09 06:30N 36°53' W 076°20'0 0.0
2017-Dec-09 06:00N 36°53' W 076°20'0 0.0
2017-Dec-09 05:17N 36°53' W 076°20'0 0.0
2017-Dec-09 05:00N 36°53' W 076°20'0 0.0
2017-Dec-09 04:30N 36°53' W 076°20'0 0.0
2017-Dec-09 04:00N 36°53' W 076°20'0 0.0
2017-Dec-09 03:30N 36°53' W 076°20'0 0.0
2017-Dec-09 03:00N 36°53' W 076°20'0 0.0
2017-Dec-09 02:30N 36°53' W 076°20'0 0.0
2017-Dec-09 02:00N 36°53' W 076°20'0 0.0
2017-Dec-09 01:27N 36°53' W 076°20'0 0.0
2017-Dec-09 00:57N 36°53' W 076°20'0 0.0
2017-Dec-09 00:30N 36°53' W 076°20'0 0.0
2017-Dec-09 00:00N 36°53' W 076°20'0 0.0
2017-Dec-08 23:29N 36°53' W 076°20'1 1.8
2017-Dec-08 23:00N 36°53' W 076°21'1 1.2
2017-Dec-08 22:30N 36°53' W 076°20'0 0.1
2017-Dec-08 20:00N 36°53' W 076°20'0 0.8
2017-Dec-08 19:30N 36°53' W 076°20'0 0.0
2017-Dec-08 17:51N 36°53' W 076°20'1 1.6
2017-Dec-08 17:11N 36°53' W 076°21'0 0.0
2017-Dec-08 16:59N 36°53' W 076°21'0 0.1
2017-Dec-08 15:50N 36°53' W 076°21'2 6.2
2017-Dec-08 15:27N 36°55' W 076°20'1 1.1
2017-Dec-08 14:56N 36°55' W 076°20'1 2.3
2017-Dec-08 14:29N 36°56' W 076°20'1 0.9
2017-Dec-08 13:36N 36°56' W 076°20'0 0.0
2017-Dec-08 13:27N 36°56' W 076°20'1 0.4
2017-Dec-08 11:36N 36°55' W 076°20'0 0.9
2017-Dec-08 11:30N 36°55' W 076°20'0 0.0
2017-Dec-08 11:00N 36°55' W 076°20'0 0.1
2017-Dec-08 08:33N 36°55' W 076°20'2 6.8
2017-Dec-08 08:19N 36°53' W 076°20'1 1.9
2017-Dec-08 08:00N 36°53' W 076°20'0 0.0
2017-Dec-08 07:30N 36°53' W 076°20'0 0.0
2017-Dec-08 07:00N 36°53' W 076°20'0 0.0
2017-Dec-08 06:30N 36°53' W 076°20'0 0.0
2017-Dec-08 06:00N 36°53' W 076°20'0 0.0
2017-Dec-08 05:30N 36°53' W 076°20'0 0.0
2017-Dec-08 05:00N 36°53' W 076°20'0 0.0
2017-Dec-08 04:30N 36°53' W 076°20'0 0.0
2017-Dec-08 04:00N 36°53' W 076°20'0 0.1
2017-Dec-08 03:30N 36°53' W 076°20'0 0.8
2017-Dec-08 03:00N 36°53' W 076°20'0 0.3
2017-Dec-08 02:18N 36°53' W 076°20'0 0.6
2017-Dec-08 01:50N 36°53' W 076°20'0 0.2
2017-Dec-08 01:30N 36°53' W 076°20'0 0.0
2017-Dec-08 01:00N 36°53' W 076°20'0 0.0
2017-Dec-08 00:30N 36°53' W 076°20'3 5.0
2017-Dec-07 23:57N 36°56' W 076°20'0 0.1
2017-Dec-07 23:30N 36°56' W 076°20'3 1.7
2017-Dec-07 22:01N 36°53' W 076°20'110.5
2017-Dec-07 21:56N 36°52' W 076°20'0 0.5
2017-Dec-07 21:22N 36°52' W 076°20'1 1.2
2017-Dec-07 20:56N 36°53' W 076°20'0 0.3
2017-Dec-07 20:30N 36°53' W 076°20'1 2.5
2017-Dec-07 20:00N 36°52' W 076°19'3 5.1
2017-Dec-07 19:30N 36°50' W 076°16'0 0.0
2017-Dec-07 19:00N 36°50' W 076°16'0 0.0
2017-Dec-07 18:30N 36°50' W 076°16'0 0.0
2017-Dec-07 18:00N 36°50' W 076°16'0 0.0
2017-Dec-07 17:30N 36°50' W 076°16'0 0.0
2017-Dec-07 17:00N 36°50' W 076°16'0 0.0
2017-Dec-07 16:30N 36°50' W 076°16'0 0.0
2017-Dec-07 16:00N 36°50' W 076°16'0 0.0
2017-Dec-07 15:30N 36°50' W 076°16'0 0.0
2017-Dec-07 15:00N 36°50' W 076°16'3 6.7
2017-Dec-07 14:30N 36°52' W 076°20'1 0.8
2017-Dec-07 13:48N 36°53' W 076°20'0 0.3
2017-Dec-07 13:30N 36°53' W 076°20'0 0.5
2017-Dec-07 12:46N 36°52' W 076°20'1 3.6
2017-Dec-07 12:30N 36°51' W 076°19'1 2.5
2017-Dec-07 11:58N 36°53' W 076°20'1 3.0
2017-Dec-07 11:30N 36°52' W 076°19'0 0.0
2017-Dec-07 09:39N 36°51' W 076°19'1 8.2
2017-Dec-07 09:30N 36°51' W 076°18'3 5.5
2017-Dec-07 09:00N 36°48' W 076°17'2 3.3
2017-Dec-07 08:30N 36°47' W 076°19'1 1.1
2017-Dec-07 08:00N 36°47' W 076°18'1 2.4
2017-Dec-07 07:30N 36°48' W 076°18'0 0.0
2017-Dec-07 07:00N 36°48' W 076°18'0 0.2
2017-Dec-07 06:30N 36°48' W 076°18'2 3.5
2017-Dec-07 06:00N 36°50' W 076°18'2 4.8
2017-Dec-07 05:29N 36°52' W 076°19'1 2.4
2017-Dec-07 05:00N 36°53' W 076°20'1 1.4
2017-Dec-07 04:18N 36°52' W 076°21'0 0.0
2017-Dec-07 04:00N 36°52' W 076°21'0 0.3
2017-Dec-07 03:27N 36°53' W 076°21'0 0.3
2017-Dec-07 03:00N 36°53' W 076°21'0 0.1
2017-Dec-07 02:30N 36°53' W 076°21'2 3.6
2017-Dec-07 02:00N 36°52' W 076°19'0 0.1
2017-Dec-06 23:25N 36°51' W 076°19'0 0.1
2017-Dec-06 22:59N 36°52' W 076°19'0 0.3
2017-Dec-06 22:26N 36°52' W 076°19'1 3.2
2017-Dec-06 22:00N 36°53' W 076°20'  
2017-Dec-04 10:23N 36°51' W 076°19'0 1.3
2017-Dec-04 10:00N 36°51' W 076°20'0 0.0
2017-Dec-04 09:30N 36°51' W 076°20'1 2.4
2017-Dec-04 09:00N 36°51' W 076°18'2 3.3
2017-Dec-04 08:30N 36°50' W 076°16'0 0.0
2017-Dec-04 07:57N 36°50' W 076°16'0 0.0
2017-Dec-04 07:30N 36°50' W 076°16'0 0.0
2017-Dec-04 07:00N 36°50' W 076°16'0 0.0
2017-Dec-04 06:30N 36°50' W 076°16'0 0.0
2017-Dec-04 06:00N 36°50' W 076°16'0 0.0
2017-Dec-04 05:30N 36°50' W 076°16'0 0.0
2017-Dec-04 05:00N 36°50' W 076°16'0 0.0
2017-Dec-04 04:30N 36°50' W 076°16'0 0.0
2017-Dec-04 04:00N 36°50' W 076°16'0 0.0
2017-Dec-04 03:30N 36°50' W 076°16'0 0.0
2017-Dec-04 03:00N 36°50' W 076°16'0 0.0
2017-Dec-04 02:30N 36°50' W 076°16'0 0.0
2017-Dec-04 02:00N 36°50' W 076°16'0 0.0
2017-Dec-04 01:30N 36°50' W 076°16'0 0.0
2017-Dec-04 01:00N 36°50' W 076°16'0 0.0
2017-Dec-04 00:30N 36°50' W 076°16'0 0.9
2017-Dec-04 00:00N 36°50' W 076°17'8 1.2
2017-Dec-03 17:30N 36°57' W 076°21'2 0.7
2017-Dec-03 15:01N 36°56' W 076°20'0 0.0
2017-Dec-03 14:44N 36°56' W 076°20'0 0.0
2017-Dec-03 14:30N 36°56' W 076°20'0 0.0
2017-Dec-03 14:00N 36°56' W 076°20'0 0.0
2017-Dec-03 13:30N 36°56' W 076°20'0 0.0
2017-Dec-03 13:00N 36°56' W 076°20'0 0.0
2017-Dec-03 12:30N 36°56' W 076°20'3 4.0
2017-Dec-03 11:47N 36°53' W 076°20'1 3.1
2017-Dec-03 11:30N 36°52' W 076°21'0 0.8
2017-Dec-03 10:58N 36°53' W 076°21'2 4.0
2017-Dec-03 10:30N 36°54' W 076°20'2 4.4
2017-Dec-03 10:00N 36°52' W 076°21'2 3.5
2017-Dec-03 09:30N 36°51' W 076°19'0 0.0
2017-Dec-03 09:00N 36°51' W 076°19'0 0.0
2017-Dec-03 08:30N 36°51' W 076°19'0 0.0
2017-Dec-03 08:00N 36°51' W 076°19'0 0.0
2017-Dec-03 07:30N 36°51' W 076°19'0 0.0
2017-Dec-03 07:00N 36°51' W 076°19'0 0.0
2017-Dec-03 06:30N 36°51' W 076°19'0 0.0
2017-Dec-03 06:00N 36°51' W 076°19'0 0.0
2017-Dec-03 05:30N 36°51' W 076°19'0 0.0
2017-Dec-03 05:00N 36°51' W 076°19'0 0.0
2017-Dec-03 04:30N 36°51' W 076°19'0 0.0
2017-Dec-03 04:00N 36°51' W 076°19'2 3.3
2017-Dec-03 03:30N 36°50' W 076°18'1 2.5
2017-Dec-03 03:00N 36°49' W 076°17'0 0.1
2017-Dec-03 02:30N 36°49' W 076°17'3 5.5
2017-Dec-03 02:00N 36°51' W 076°19'0 0.0
2017-Dec-03 01:30N 36°51' W 076°19'0 0.0
2017-Dec-03 01:00N 36°51' W 076°19'0 0.0
2017-Dec-03 00:30N 36°51' W 076°19'0 0.0
2017-Dec-03 00:00N 36°51' W 076°19'0 0.0
2017-Dec-02 23:30N 36°51' W 076°19'0 0.0
2017-Dec-02 23:00N 36°51' W 076°19'0 0.0
2017-Dec-02 22:30N 36°51' W 076°19'0 0.6
2017-Dec-02 22:00N 36°52' W 076°19'0 0.3
2017-Dec-02 21:22N 36°51' W 076°19'1 3.7
2017-Dec-02 21:00N 36°53' W 076°20'0 0.2
2017-Dec-02 20:30N 36°53' W 076°20'0 0.1
2017-Dec-02 20:00N 36°53' W 076°20'0 0.0
2017-Dec-02 19:30N 36°53' W 076°20'5 1.0
2017-Dec-02 14:43N 36°57' W 076°22'2 7.8
2017-Dec-02 14:27N 36°56' W 076°20'0 0.1
2017-Dec-02 12:13N 36°56' W 076°20'0 0.0
2017-Dec-02 11:58N 36°56' W 076°20'0 1.0
2017-Dec-02 11:30N 36°55' W 076°20'0 0.6
2017-Dec-02 11:00N 36°56' W 076°20'0 0.3
2017-Dec-02 10:18N 36°56' W 076°20'0 0.0
2017-Dec-02 01:58N 36°56' W 076°20'0 0.6
2017-Dec-02 01:19N 36°56' W 076°20'0 0.1
2017-Dec-01 22:54N 36°56' W 076°20'0 0.0
2017-Dec-01 22:29N 36°56' W 076°20'2 1.0
2017-Dec-01 20:40N 36°54' W 076°20'2 7.7
2017-Dec-01 20:28N 36°53' W 076°21'0 1.1
2017-Dec-01 20:00N 36°53' W 076°20'1 1.0
2017-Dec-01 19:30N 36°52' W 076°21'1 1.2
2017-Dec-01 18:56N 36°53' W 076°20'4 8.6
2017-Dec-01 18:30N 36°50' W 076°17'0 0.4
2017-Dec-01 18:00N 36°50' W 076°16'0 0.0
2017-Dec-01 17:30N 36°50' W 076°16'0 0.0
2017-Dec-01 17:00N 36°50' W 076°16'0 0.0
2017-Dec-01 14:06N 36°50' W 076°16'0 0.1
2017-Dec-01 14:00N 36°50' W 076°16'0 0.0
2017-Dec-01 13:30N 36°50' W 076°16'0 0.0
2017-Dec-01 13:00N 36°50' W 076°16'0 0.0
2017-Dec-01 12:30N 36°50' W 076°16'1 2.8
2017-Dec-01 12:00N 36°51' W 076°18'1 2.1
2017-Dec-01 11:30N 36°51' W 076°19'0 0.0
2017-Dec-01 11:00N 36°51' W 076°19'0 0.0
2017-Dec-01 10:30N 36°51' W 076°19'0 0.0
2017-Dec-01 10:00N 36°51' W 076°19'0 0.0
2017-Dec-01 09:30N 36°51' W 076°19'0 0.0
2017-Dec-01 09:00N 36°51' W 076°19'3 6.3
2017-Dec-01 08:30N 36°49' W 076°17'2 3.9
2017-Dec-01 08:00N 36°47' W 076°18'0 0.2
2017-Dec-01 07:30N 36°47' W 076°18'1 2.5
2017-Dec-01 07:00N 36°48' W 076°18'2 4.4
2017-Dec-01 06:30N 36°50' W 076°18'0 0.1
2017-Dec-01 06:01N 36°50' W 076°18'2 4.4
2017-Dec-01 05:30N 36°48' W 076°18'1 2.6
2017-Dec-01 05:00N 36°47' W 076°19'1 1.1
2017-Dec-01 04:30N 36°47' W 076°18'0 0.2
2017-Dec-01 04:00N 36°47' W 076°18'0 0.0
2017-Dec-01 03:30N 36°47' W 076°18'0 0.0
2017-Dec-01 03:00N 36°47' W 076°18'0 0.0
2017-Dec-01 02:30N 36°47' W 076°18'0 0.0
2017-Dec-01 02:00N 36°47' W 076°18'0 0.0
2017-Dec-01 01:30N 36°47' W 076°18'  
Track history (hours):
 
Tides and Currents Weather Stations Pressure Air Temp Water Temp Dewpoint Dewpoint Depression Visibility Wind Speed Wind Dir Waves Ship Positions

Maxwell Paul Moran

Owner: MORAN TOWING CORPORATION, NORFOLK, VA. More information available from US FCC via Universal Licensing System and Coast Guard Vessel Documentation Center.

Last reported at 2017-Dec-11 01:18 UTC. Time now 2017-Dec-11 01:57 UTC.
Position N 36°52' W 076°19'.

Length 28 m; draft 5.2 m.

Type: Tug. MMSI: 367756350.

Date/timePositionNaut miles runAvg speedWind from/ knotsBaromVisibWave heightAir tempDewpointWater temp
2017-Dec-11 01:18N 36°52' W 076°19'2 6.1
2017-Dec-11 01:00N 36°50' W 076°18'2 4.4
2017-Dec-11 00:30N 36°48' W 076°17'0 0.2
2017-Dec-11 00:00N 36°48' W 076°18'1 2.7
2017-Dec-10 23:30N 36°50' W 076°17'2 3.7
2017-Dec-10 23:00N 36°51' W 076°18'0 0.5
2017-Dec-10 22:28N 36°51' W 076°19'2 5.2
2017-Dec-10 22:00N 36°49' W 076°17'1 2.2
2017-Dec-10 21:30N 36°48' W 076°17'0 0.0
2017-Dec-10 21:00N 36°48' W 076°17'0 0.0
2017-Dec-10 20:30N 36°48' W 076°17'0 0.1
2017-Dec-10 20:00N 36°48' W 076°17'4 8.4
2017-Dec-10 19:30N 36°52' W 076°19'1 0.5
2017-Dec-10 17:44N 36°53' W 076°20'0 1.0
2017-Dec-10 17:30N 36°53' W 076°20'0 0.0
2017-Dec-10 17:00N 36°53' W 076°20'0 0.0
2017-Dec-10 16:30N 36°53' W 076°20'0 0.0
2017-Dec-10 16:00N 36°53' W 076°20'0 0.0
2017-Dec-10 15:30N 36°53' W 076°20'0 0.0
2017-Dec-10 14:58N 36°53' W 076°20'0 0.0
2017-Dec-10 14:29N 36°53' W 076°20'0 0.0
2017-Dec-10 13:13N 36°53' W 076°20'0 0.0
2017-Dec-10 12:46N 36°53' W 076°20'1 2.2
2017-Dec-10 12:16N 36°53' W 076°21'0 0.1
2017-Dec-10 11:59N 36°53' W 076°21'0 0.0
2017-Dec-10 11:30N 36°53' W 076°21'0 0.7
2017-Dec-10 11:00N 36°53' W 076°21'1 1.1
2017-Dec-10 10:30N 36°53' W 076°20'0 0.0
2017-Dec-10 10:00N 36°53' W 076°20'0 0.0
2017-Dec-10 09:30N 36°53' W 076°20'0 0.0
2017-Dec-10 09:00N 36°53' W 076°20'0 0.0
2017-Dec-10 08:30N 36°53' W 076°20'0 0.0
2017-Dec-10 08:00N 36°53' W 076°20'0 0.0
2017-Dec-10 07:30N 36°53' W 076°20'0 0.0
2017-Dec-10 06:42N 36°53' W 076°20'0 0.0
2017-Dec-10 06:30N 36°53' W 076°20'0 0.0
2017-Dec-10 05:59N 36°53' W 076°20'0 0.0
2017-Dec-10 05:28N 36°53' W 076°20'0 0.0
2017-Dec-10 04:14N 36°53' W 076°20'0 0.0
2017-Dec-10 04:00N 36°53' W 076°20'0 0.0
2017-Dec-10 02:47N 36°53' W 076°20'0 0.3
2017-Dec-10 02:30N 36°53' W 076°20'2 1.7
2017-Dec-10 01:22N 36°55' W 076°20'1 1.9
2017-Dec-10 00:38N 36°53' W 076°20'1 9.4
2017-Dec-10 00:30N 36°52' W 076°20'1 1.4
2017-Dec-09 23:59N 36°51' W 076°20'1 0.6
2017-Dec-09 21:42N 36°53' W 076°20'0 0.0
2017-Dec-09 17:20N 36°53' W 076°20'0 0.2
2017-Dec-09 17:00N 36°53' W 076°20'0 0.0
2017-Dec-09 16:30N 36°53' W 076°20'0 0.0
2017-Dec-09 16:00N 36°53' W 076°20'0 0.0
2017-Dec-09 15:30N 36°53' W 076°20'0 0.0
2017-Dec-09 15:00N 36°53' W 076°20'0 0.0
2017-Dec-09 14:28N 36°53' W 076°20'0 0.0
2017-Dec-09 14:00N 36°53' W 076°20'0 0.0
2017-Dec-09 13:30N 36°53' W 076°20'0 0.0
2017-Dec-09 13:00N 36°53' W 076°20'0 0.0
2017-Dec-09 12:30N 36°53' W 076°20'0 0.0
2017-Dec-09 11:58N 36°53' W 076°20'0 0.0
2017-Dec-09 11:30N 36°53' W 076°20'0 0.0
2017-Dec-09 11:00N 36°53' W 076°20'0 0.0
2017-Dec-09 10:26N 36°53' W 076°20'0 0.0
2017-Dec-09 09:51N 36°53' W 076°20'0 0.0
2017-Dec-09 09:30N 36°53' W 076°20'0 0.0
2017-Dec-09 08:58N 36°53' W 076°20'1 2.3
2017-Dec-09 08:29N 36°52' W 076°19'1 1.0
2017-Dec-09 08:00N 36°51' W 076°20'1 1.8
2017-Dec-09 07:30N 36°52' W 076°20'0 0.9
2017-Dec-09 06:59N 36°53' W 076°20'0 0.0
2017-Dec-09 06:30N 36°53' W 076°20'0 0.0
2017-Dec-09 06:00N 36°53' W 076°20'0 0.0
2017-Dec-09 05:17N 36°53' W 076°20'0 0.0
2017-Dec-09 05:00N 36°53' W 076°20'0 0.0
2017-Dec-09 04:30N 36°53' W 076°20'0 0.0
2017-Dec-09 04:00N 36°53' W 076°20'0 0.0
2017-Dec-09 03:30N 36°53' W 076°20'0 0.0
2017-Dec-09 03:00N 36°53' W 076°20'0 0.0
2017-Dec-09 02:30N 36°53' W 076°20'0 0.0
2017-Dec-09 02:00N 36°53' W 076°20'0 0.0
2017-Dec-09 01:27N 36°53' W 076°20'0 0.0
2017-Dec-09 00:57N 36°53' W 076°20'0 0.0
2017-Dec-09 00:30N 36°53' W 076°20'0 0.0
2017-Dec-09 00:00N 36°53' W 076°20'0 0.0
2017-Dec-08 23:29N 36°53' W 076°20'1 1.8
2017-Dec-08 23:00N 36°53' W 076°21'1 1.2
2017-Dec-08 22:30N 36°53' W 076°20'0 0.1
2017-Dec-08 20:00N 36°53' W 076°20'0 0.8
2017-Dec-08 19:30N 36°53' W 076°20'0 0.0
2017-Dec-08 17:51N 36°53' W 076°20'1 1.6
2017-Dec-08 17:11N 36°53' W 076°21'0 0.0
2017-Dec-08 16:59N 36°53' W 076°21'0 0.1
2017-Dec-08 15:50N 36°53' W 076°21'2 6.2
2017-Dec-08 15:27N 36°55' W 076°20'1 1.1
2017-Dec-08 14:56N 36°55' W 076°20'1 2.3
2017-Dec-08 14:29N 36°56' W 076°20'1 0.9
2017-Dec-08 13:36N 36°56' W 076°20'0 0.0
2017-Dec-08 13:27N 36°56' W 076°20'1 0.4
2017-Dec-08 11:36N 36°55' W 076°20'0 0.9
2017-Dec-08 11:30N 36°55' W 076°20'0 0.0
2017-Dec-08 11:00N 36°55' W 076°20'0 0.1
2017-Dec-08 08:33N 36°55' W 076°20'2 6.8
2017-Dec-08 08:19N 36°53' W 076°20'1 1.9
2017-Dec-08 08:00N 36°53' W 076°20'0 0.0
2017-Dec-08 07:30N 36°53' W 076°20'0 0.0
2017-Dec-08 07:00N 36°53' W 076°20'0 0.0
2017-Dec-08 06:30N 36°53' W 076°20'0 0.0
2017-Dec-08 06:00N 36°53' W 076°20'0 0.0
2017-Dec-08 05:30N 36°53' W 076°20'0 0.0
2017-Dec-08 05:00N 36°53' W 076°20'0 0.0
2017-Dec-08 04:30N 36°53' W 076°20'0 0.0
2017-Dec-08 04:00N 36°53' W 076°20'0 0.1
2017-Dec-08 03:30N 36°53' W 076°20'0 0.8
2017-Dec-08 03:00N 36°53' W 076°20'0 0.3
2017-Dec-08 02:18N 36°53' W 076°20'0 0.6
2017-Dec-08 01:50N 36°53' W 076°20'0 0.2
2017-Dec-08 01:30N 36°53' W 076°20'0 0.0
2017-Dec-08 01:00N 36°53' W 076°20'0 0.0
2017-Dec-08 00:30N 36°53' W 076°20'3 5.0
2017-Dec-07 23:57N 36°56' W 076°20'0 0.1
2017-Dec-07 23:30N 36°56' W 076°20'3 1.7
2017-Dec-07 22:01N 36°53' W 076°20'110.5
2017-Dec-07 21:56N 36°52' W 076°20'0 0.5
2017-Dec-07 21:22N 36°52' W 076°20'1 1.2
2017-Dec-07 20:56N 36°53' W 076°20'0 0.3
2017-Dec-07 20:30N 36°53' W 076°20'1 2.5
2017-Dec-07 20:00N 36°52' W 076°19'3 5.1
2017-Dec-07 19:30N 36°50' W 076°16'0 0.0
2017-Dec-07 19:00N 36°50' W 076°16'0 0.0
2017-Dec-07 18:30N 36°50' W 076°16'0 0.0
2017-Dec-07 18:00N 36°50' W 076°16'0 0.0
2017-Dec-07 17:30N 36°50' W 076°16'0 0.0
2017-Dec-07 17:00N 36°50' W 076°16'0 0.0
2017-Dec-07 16:30N 36°50' W 076°16'0 0.0
2017-Dec-07 16:00N 36°50' W 076°16'0 0.0
2017-Dec-07 15:30N 36°50' W 076°16'0 0.0
2017-Dec-07 15:00N 36°50' W 076°16'3 6.7
2017-Dec-07 14:30N 36°52' W 076°20'1 0.8
2017-Dec-07 13:48N 36°53' W 076°20'0 0.3
2017-Dec-07 13:30N 36°53' W 076°20'0 0.5
2017-Dec-07 12:46N 36°52' W 076°20'1 3.6
2017-Dec-07 12:30N 36°51' W 076°19'1 2.5
2017-Dec-07 11:58N 36°53' W 076°20'1 3.0
2017-Dec-07 11:30N 36°52' W 076°19'0 0.0
2017-Dec-07 09:39N 36°51' W 076°19'1 8.2
2017-Dec-07 09:30N 36°51' W 076°18'3 5.5
2017-Dec-07 09:00N 36°48' W 076°17'2 3.3
2017-Dec-07 08:30N 36°47' W 076°19'1 1.1
2017-Dec-07 08:00N 36°47' W 076°18'1 2.4
2017-Dec-07 07:30N 36°48' W 076°18'0 0.0
2017-Dec-07 07:00N 36°48' W 076°18'0 0.2
2017-Dec-07 06:30N 36°48' W 076°18'2 3.5
2017-Dec-07 06:00N 36°50' W 076°18'2 4.8
2017-Dec-07 05:29N 36°52' W 076°19'1 2.4
2017-Dec-07 05:00N 36°53' W 076°20'1 1.4
2017-Dec-07 04:18N 36°52' W 076°21'0 0.0
2017-Dec-07 04:00N 36°52' W 076°21'0 0.3
2017-Dec-07 03:27N 36°53' W 076°21'0 0.3
2017-Dec-07 03:00N 36°53' W 076°21'0 0.1
2017-Dec-07 02:30N 36°53' W 076°21'2 3.6
2017-Dec-07 02:00N 36°52' W 076°19'0 0.1
2017-Dec-06 23:25N 36°51' W 076°19'0 0.1
2017-Dec-06 22:59N 36°52' W 076°19'0 0.3
2017-Dec-06 22:26N 36°52' W 076°19'1 3.2
2017-Dec-06 22:00N 36°53' W 076°20'  
2017-Dec-04 10:23N 36°51' W 076°19'0 1.3
2017-Dec-04 10:00N 36°51' W 076°20'0 0.0
2017-Dec-04 09:30N 36°51' W 076°20'1 2.4
2017-Dec-04 09:00N 36°51' W 076°18'2 3.3
2017-Dec-04 08:30N 36°50' W 076°16'0 0.0
2017-Dec-04 07:57N 36°50' W 076°16'0 0.0
2017-Dec-04 07:30N 36°50' W 076°16'0 0.0
2017-Dec-04 07:00N 36°50' W 076°16'0 0.0
2017-Dec-04 06:30N 36°50' W 076°16'0 0.0
2017-Dec-04 06:00N 36°50' W 076°16'0 0.0
2017-Dec-04 05:30N 36°50' W 076°16'0 0.0
2017-Dec-04 05:00N 36°50' W 076°16'0 0.0
2017-Dec-04 04:30N 36°50' W 076°16'0 0.0
2017-Dec-04 04:00N 36°50' W 076°16'0 0.0
2017-Dec-04 03:30N 36°50' W 076°16'0 0.0
2017-Dec-04 03:00N 36°50' W 076°16'0 0.0
2017-Dec-04 02:30N 36°50' W 076°16'0 0.0
2017-Dec-04 02:00N 36°50' W 076°16'0 0.0
2017-Dec-04 01:30N 36°50' W 076°16'0 0.0
2017-Dec-04 01:00N 36°50' W 076°16'0 0.0
2017-Dec-04 00:30N 36°50' W 076°16'0 0.9
2017-Dec-04 00:00N 36°50' W 076°17'8 1.2
2017-Dec-03 17:30N 36°57' W 076°21'2 0.7
2017-Dec-03 15:01N 36°56' W 076°20'0 0.0
2017-Dec-03 14:44N 36°56' W 076°20'0 0.0
2017-Dec-03 14:30N 36°56' W 076°20'0 0.0
2017-Dec-03 14:00N 36°56' W 076°20'0 0.0
2017-Dec-03 13:30N 36°56' W 076°20'0 0.0
2017-Dec-03 13:00N 36°56' W 076°20'0 0.0
2017-Dec-03 12:30N 36°56' W 076°20'3 4.0
2017-Dec-03 11:47N 36°53' W 076°20'1 3.1
2017-Dec-03 11:30N 36°52' W 076°21'0 0.8
2017-Dec-03 10:58N 36°53' W 076°21'2 4.0
2017-Dec-03 10:30N 36°54' W 076°20'2 4.4
2017-Dec-03 10:00N 36°52' W 076°21'2 3.5
2017-Dec-03 09:30N 36°51' W 076°19'0 0.0
2017-Dec-03 09:00N 36°51' W 076°19'0 0.0
2017-Dec-03 08:30N 36°51' W 076°19'0 0.0
2017-Dec-03 08:00N 36°51' W 076°19'0 0.0
2017-Dec-03 07:30N 36°51' W 076°19'0 0.0
2017-Dec-03 07:00N 36°51' W 076°19'0 0.0
2017-Dec-03 06:30N 36°51' W 076°19'0 0.0
2017-Dec-03 06:00N 36°51' W 076°19'0 0.0
2017-Dec-03 05:30N 36°51' W 076°19'0 0.0
2017-Dec-03 05:00N 36°51' W 076°19'0 0.0
2017-Dec-03 04:30N 36°51' W 076°19'0 0.0
2017-Dec-03 04:00N 36°51' W 076°19'2 3.3
2017-Dec-03 03:30N 36°50' W 076°18'1 2.5
2017-Dec-03 03:00N 36°49' W 076°17'0 0.1
2017-Dec-03 02:30N 36°49' W 076°17'3 5.5
2017-Dec-03 02:00N 36°51' W 076°19'0 0.0
2017-Dec-03 01:30N 36°51' W 076°19'0 0.0
2017-Dec-03 01:00N 36°51' W 076°19'0 0.0
2017-Dec-03 00:30N 36°51' W 076°19'0 0.0
2017-Dec-03 00:00N 36°51' W 076°19'0 0.0
2017-Dec-02 23:30N 36°51' W 076°19'0 0.0
2017-Dec-02 23:00N 36°51' W 076°19'0 0.0
2017-Dec-02 22:30N 36°51' W 076°19'0 0.6
2017-Dec-02 22:00N 36°52' W 076°19'0 0.3
2017-Dec-02 21:22N 36°51' W 076°19'1 3.7
2017-Dec-02 21:00N 36°53' W 076°20'0 0.2
2017-Dec-02 20:30N 36°53' W 076°20'0 0.1
2017-Dec-02 20:00N 36°53' W 076°20'0 0.0
2017-Dec-02 19:30N 36°53' W 076°20'5 1.0
2017-Dec-02 14:43N 36°57' W 076°22'2 7.8
2017-Dec-02 14:27N 36°56' W 076°20'0 0.1
2017-Dec-02 12:13N 36°56' W 076°20'0 0.0
2017-Dec-02 11:58N 36°56' W 076°20'0 1.0
2017-Dec-02 11:30N 36°55' W 076°20'0 0.6
2017-Dec-02 11:00N 36°56' W 076°20'0 0.3
2017-Dec-02 10:18N 36°56' W 076°20'0 0.0
2017-Dec-02 01:58N 36°56' W 076°20'0 0.6
2017-Dec-02 01:19N 36°56' W 076°20'0 0.1
2017-Dec-01 22:54N 36°56' W 076°20'0 0.0
2017-Dec-01 22:29N 36°56' W 076°20'2 1.0
2017-Dec-01 20:40N 36°54' W 076°20'2 7.7
2017-Dec-01 20:28N 36°53' W 076°21'0 1.1
2017-Dec-01 20:00N 36°53' W 076°20'1 1.0
2017-Dec-01 19:30N 36°52' W 076°21'1 1.2
2017-Dec-01 18:56N 36°53' W 076°20'4 8.6
2017-Dec-01 18:30N 36°50' W 076°17'0 0.4
2017-Dec-01 18:00N 36°50' W 076°16'0 0.0
2017-Dec-01 17:30N 36°50' W 076°16'0 0.0
2017-Dec-01 17:00N 36°50' W 076°16'0 0.0
2017-Dec-01 14:06N 36°50' W 076°16'0 0.1
2017-Dec-01 14:00N 36°50' W 076°16'0 0.0
2017-Dec-01 13:30N 36°50' W 076°16'0 0.0
2017-Dec-01 13:00N 36°50' W 076°16'0 0.0
2017-Dec-01 12:30N 36°50' W 076°16'1 2.8
2017-Dec-01 12:00N 36°51' W 076°18'1 2.1
2017-Dec-01 11:30N 36°51' W 076°19'0 0.0
2017-Dec-01 11:00N 36°51' W 076°19'0 0.0
2017-Dec-01 10:30N 36°51' W 076°19'0 0.0
2017-Dec-01 10:00N 36°51' W 076°19'0 0.0
2017-Dec-01 09:30N 36°51' W 076°19'0 0.0
2017-Dec-01 09:00N 36°51' W 076°19'3 6.3
2017-Dec-01 08:30N 36°49' W 076°17'2 3.9
2017-Dec-01 08:00N 36°47' W 076°18'0 0.2
2017-Dec-01 07:30N 36°47' W 076°18'1 2.5
2017-Dec-01 07:00N 36°48' W 076°18'2 4.4
2017-Dec-01 06:30N 36°50' W 076°18'0 0.1
2017-Dec-01 06:01N 36°50' W 076°18'2 4.4
2017-Dec-01 05:30N 36°48' W 076°18'1 2.6
2017-Dec-01 05:00N 36°47' W 076°19'1 1.1
2017-Dec-01 04:30N 36°47' W 076°18'0 0.2
2017-Dec-01 04:00N 36°47' W 076°18'0 0.0
2017-Dec-01 03:30N 36°47' W 076°18'0 0.0
2017-Dec-01 03:00N 36°47' W 076°18'0 0.0
2017-Dec-01 02:30N 36°47' W 076°18'0 0.0
2017-Dec-01 02:00N 36°47' W 076°18'0 0.0
2017-Dec-01 01:30N 36°47' W 076°18'  

Dump ship's entire track history